createdAt,value
2018-10-01T00:00:14.890Z,8.90
2018-10-01T00:02:44.308Z,8.90
2018-10-01T00:05:13.734Z,8.90
2018-10-01T00:07:43.164Z,8.90
2018-10-01T00:10:12.597Z,8.90
2018-10-01T00:12:42.025Z,9.00
2018-10-01T00:15:11.449Z,9.10
2018-10-01T00:17:40.903Z,9.30
2018-10-01T00:20:15.725Z,9.40
2018-10-01T00:22:48.503Z,9.50
2018-10-01T00:25:18.480Z,9.60
2018-10-01T00:27:48.087Z,9.80
2018-10-01T00:30:17.525Z,9.90
2018-10-01T00:32:46.927Z,10.00
2018-10-01T00:35:16.421Z,10.10
2018-10-01T00:37:45.771Z,10.10
2018-10-01T00:40:15.271Z,10.20
2018-10-01T00:42:44.699Z,10.20
2018-10-01T00:45:14.182Z,10.30
2018-10-01T00:47:43.622Z,10.40
2018-10-01T00:50:13.007Z,10.50
2018-10-01T00:52:42.475Z,10.50
2018-10-01T00:55:11.893Z,10.60
2018-10-01T00:57:41.284Z,10.70
2018-10-01T01:00:11.075Z,10.70
2018-10-01T01:02:40.496Z,10.70
2018-10-01T01:05:09.962Z,10.70
2018-10-01T01:07:39.387Z,10.70
2018-10-01T01:10:08.816Z,10.70
2018-10-01T01:12:38.266Z,10.60
2018-10-01T01:15:08.146Z,10.70
2018-10-01T01:17:37.624Z,10.60
2018-10-01T01:20:07.127Z,10.70
2018-10-01T01:22:36.551Z,10.60
2018-10-01T01:25:06.101Z,10.70
2018-10-01T01:27:35.629Z,10.60
2018-10-01T01:30:05.114Z,10.60
2018-10-01T01:32:34.530Z,10.60
2018-10-01T01:35:03.964Z,10.60
2018-10-01T01:37:33.436Z,10.50
2018-10-01T01:40:02.868Z,10.50
2018-10-01T01:42:32.263Z,10.50
2018-10-01T01:45:01.642Z,10.50
2018-10-01T01:47:31.045Z,10.50
2018-10-01T01:50:00.428Z,10.50
2018-10-01T01:52:29.833Z,10.50
2018-10-01T01:54:59.225Z,10.50
2018-10-01T01:57:28.621Z,10.50
2018-10-01T01:59:58.099Z,10.50
2018-10-01T02:02:27.484Z,10.50
2018-10-01T02:04:56.883Z,10.50
2018-10-01T02:07:26.289Z,10.40
2018-10-01T02:09:55.701Z,10.40
2018-10-01T02:12:25.185Z,10.40
2018-10-01T02:14:54.628Z,10.50
2018-10-01T02:17:24.003Z,10.50
2018-10-01T02:19:53.572Z,10.50
2018-10-01T02:22:22.942Z,10.50
2018-10-01T02:24:52.403Z,10.60
2018-10-01T02:27:21.833Z,10.60
2018-10-01T02:29:51.228Z,10.70
2018-10-01T02:32:20.695Z,10.70
2018-10-01T02:34:50.170Z,10.70
2018-10-01T02:37:19.710Z,10.60
2018-10-01T02:39:49.116Z,10.70
2018-10-01T02:42:18.528Z,10.70
2018-10-01T02:44:47.913Z,10.70
2018-10-01T02:47:17.485Z,10.70
2018-10-01T02:49:46.918Z,10.70
2018-10-01T02:52:21.431Z,10.70
2018-10-01T02:54:50.804Z,10.70
2018-10-01T02:57:20.251Z,10.70
2018-10-01T02:59:49.726Z,10.70
2018-10-01T03:02:19.122Z,10.70
2018-10-01T03:04:48.587Z,10.70
2018-10-01T03:07:18.019Z,10.60
2018-10-01T03:09:47.987Z,10.60
2018-10-01T03:12:17.435Z,10.70
2018-10-01T03:14:46.885Z,10.60
2018-10-01T03:17:16.278Z,10.60
2018-10-01T03:19:45.735Z,10.60
2018-10-01T03:22:15.143Z,10.60
2018-10-01T03:24:44.623Z,10.60
2018-10-01T03:27:14.051Z,10.60
2018-10-01T03:29:43.509Z,10.50
2018-10-01T03:32:12.949Z,10.50
2018-10-01T03:34:42.529Z,10.50
2018-10-01T03:37:12.034Z,10.50
2018-10-01T03:39:41.478Z,10.50
2018-10-01T03:42:10.964Z,10.50
2018-10-01T03:44:40.374Z,10.50
2018-10-01T03:47:09.849Z,10.50
2018-10-01T03:49:39.249Z,10.50
2018-10-01T03:52:08.690Z,10.50
2018-10-01T03:54:38.175Z,10.40
2018-10-01T03:57:07.921Z,10.30
2018-10-01T03:59:37.367Z,10.30
2018-10-01T04:02:06.870Z,10.30
2018-10-01T04:04:36.323Z,10.30
2018-10-01T04:07:05.789Z,10.30
2018-10-01T04:09:35.219Z,10.40
2018-10-01T04:12:04.681Z,10.40
2018-10-01T04:14:34.183Z,10.40
2018-10-01T04:17:03.660Z,10.30
2018-10-01T04:19:33.135Z,10.40
2018-10-01T04:22:02.578Z,10.30
2018-10-01T04:24:32.028Z,10.30
2018-10-01T04:27:01.764Z,10.30
2018-10-01T04:29:31.181Z,10.20
2018-10-01T04:32:00.611Z,10.20
2018-10-01T04:34:30.054Z,10.10
2018-10-01T04:36:59.476Z,10.00
2018-10-01T04:39:28.919Z,10.00
2018-10-01T04:41:58.615Z,10.00
2018-10-01T04:44:28.087Z,10.00
2018-10-01T04:46:57.519Z,10.10
2018-10-01T04:49:26.991Z,10.10
2018-10-01T04:51:56.447Z,10.10
2018-10-01T04:54:25.883Z,10.10
2018-10-01T04:56:55.256Z,10.10
2018-10-01T04:59:24.668Z,10.10
2018-10-01T05:01:54.102Z,10.00
2018-10-01T05:04:23.566Z,10.00
2018-10-01T05:06:53.082Z,10.00
2018-10-01T05:09:22.491Z,10.00
2018-10-01T05:11:51.952Z,9.90
2018-10-01T05:14:21.476Z,9.80
2018-10-01T05:16:50.902Z,9.80
2018-10-01T05:19:20.395Z,9.70
2018-10-01T05:21:49.850Z,9.70
2018-10-01T05:24:19.287Z,9.60
2018-10-01T05:26:48.812Z,9.60
2018-10-01T05:29:18.247Z,9.70
2018-10-01T05:31:47.714Z,9.70
2018-10-01T05:34:17.153Z,9.70
2018-10-01T05:36:46.572Z,9.70
2018-10-01T05:39:16.007Z,9.80
2018-10-01T05:41:45.440Z,9.80
2018-10-01T05:44:14.923Z,9.80
2018-10-01T05:46:44.315Z,9.80
2018-10-01T05:49:13.797Z,9.80
2018-10-01T05:51:43.168Z,9.80
2018-10-01T05:54:12.603Z,9.80
2018-10-01T05:56:42.035Z,9.80
2018-10-01T05:59:11.490Z,9.80
2018-10-01T06:01:40.942Z,9.80
2018-10-01T06:04:10.398Z,9.80
2018-10-01T06:06:39.771Z,9.80
2018-10-01T06:09:10.755Z,9.80
2018-10-01T06:11:40.244Z,9.90
2018-10-01T06:14:09.693Z,9.90
2018-10-01T06:16:39.145Z,9.90
2018-10-01T06:19:08.666Z,9.80
2018-10-01T06:21:38.145Z,9.80
2018-10-01T06:24:07.727Z,9.80
2018-10-01T06:26:37.308Z,9.70
2018-10-01T06:29:06.736Z,9.70
2018-10-01T06:31:36.189Z,9.60
2018-10-01T06:34:05.643Z,9.60
2018-10-01T06:36:35.090Z,9.60
2018-10-01T06:39:06.731Z,9.60
2018-10-01T06:41:36.214Z,9.60
2018-10-01T06:44:05.658Z,9.60
2018-10-01T06:46:35.096Z,9.60
2018-10-01T06:49:04.623Z,9.60
2018-10-01T06:51:34.078Z,9.60
2018-10-01T06:54:03.532Z,9.60
2018-10-01T06:56:32.985Z,9.70
2018-10-01T06:59:02.428Z,9.80
2018-10-01T07:01:31.952Z,9.90
2018-10-01T07:04:01.389Z,10.00
2018-10-01T07:06:30.884Z,10.00
2018-10-01T07:09:00.369Z,10.00
2018-10-01T07:11:29.911Z,10.00
2018-10-01T07:13:59.368Z,10.00
2018-10-01T07:16:28.927Z,10.10
2018-10-01T07:18:58.775Z,10.20
2018-10-01T07:21:28.211Z,10.20
2018-10-01T07:23:57.716Z,10.30
2018-10-01T07:26:27.260Z,10.30
2018-10-01T07:28:56.974Z,10.30
2018-10-01T07:31:26.433Z,10.20
2018-10-01T07:33:55.837Z,10.20
2018-10-01T07:36:25.287Z,10.20
2018-10-01T07:38:54.796Z,10.30
2018-10-01T07:41:24.211Z,10.50
2018-10-01T07:43:53.679Z,10.80
2018-10-01T07:46:23.168Z,10.90
2018-10-01T07:48:52.568Z,10.90
2018-10-01T07:51:22.025Z,10.80
2018-10-01T07:53:51.586Z,10.80
2018-10-01T07:56:21.049Z,10.90
2018-10-01T07:58:50.508Z,11.00
2018-10-01T08:01:20.278Z,11.00
2018-10-01T08:03:50.186Z,11.00
2018-10-01T08:06:19.676Z,11.10
2018-10-01T08:08:49.096Z,11.10
2018-10-01T08:11:19.030Z,11.20
2018-10-01T08:13:48.474Z,11.20
2018-10-01T08:16:17.915Z,11.30
2018-10-01T08:18:47.363Z,11.40
2018-10-01T08:21:16.848Z,11.50
2018-10-01T08:23:46.453Z,11.70
2018-10-01T08:26:15.955Z,11.90
2018-10-01T08:28:45.465Z,12.10
2018-10-01T08:31:14.871Z,12.40
2018-10-01T08:33:44.322Z,12.50
2018-10-01T08:36:13.774Z,12.60
2018-10-01T08:38:43.500Z,12.80
2018-10-01T08:41:13.116Z,13.00
2018-10-01T08:43:42.544Z,13.20
2018-10-01T08:46:11.959Z,13.30
2018-10-01T08:48:45.851Z,13.60
2018-10-01T08:51:21.405Z,13.50
2018-10-01T08:53:56.340Z,13.40
2018-10-01T08:56:25.775Z,13.10
2018-10-01T08:58:55.271Z,13.10
2018-10-01T09:01:24.658Z,13.00
2018-10-01T09:03:54.145Z,12.90
2018-10-01T09:06:23.631Z,12.80
2018-10-01T09:08:53.110Z,13.00
2018-10-01T09:11:22.618Z,13.30
2018-10-01T09:13:52.661Z,13.70
2018-10-01T09:16:22.229Z,13.90
2018-10-01T09:18:51.687Z,14.20
2018-10-01T09:21:21.292Z,14.20
2018-10-01T09:23:50.732Z,14.20
2018-10-01T09:26:20.227Z,14.40
2018-10-01T09:28:50.260Z,14.30
2018-10-01T09:31:20.045Z,14.10
2018-10-01T09:33:49.490Z,14.10
2018-10-01T09:36:19.003Z,14.60
2018-10-01T09:38:48.459Z,14.80
2018-10-01T09:41:18.213Z,14.80
2018-10-01T09:43:47.925Z,14.80
2018-10-01T09:46:19.820Z,15.00
2018-10-01T09:48:49.256Z,15.20
2018-10-01T09:51:18.833Z,15.50
2018-10-01T09:53:48.357Z,15.60
2018-10-01T09:56:18.352Z,15.50
2018-10-01T09:58:47.806Z,15.80
2018-10-01T10:01:21.623Z,15.70
2018-10-01T10:03:54.121Z,15.40
2018-10-01T10:06:23.536Z,15.40
2018-10-01T10:08:53.045Z,15.70
2018-10-01T10:11:22.560Z,15.60
2018-10-01T10:13:51.973Z,15.30
2018-10-01T10:16:23.523Z,14.90
2018-10-01T10:18:52.915Z,14.30
2018-10-01T10:21:22.840Z,14.00
2018-10-01T10:23:52.319Z,13.80
2018-10-01T10:26:25.767Z,13.60
2018-10-01T10:28:55.288Z,13.40
2018-10-01T10:31:24.743Z,13.30
2018-10-01T10:33:54.219Z,13.40
2018-10-01T10:36:23.881Z,13.50
2018-10-01T10:38:54.334Z,14.00
2018-10-01T10:41:23.826Z,14.70
2018-10-01T10:43:54.281Z,15.30
2018-10-01T10:46:25.629Z,15.70
2018-10-01T10:48:55.488Z,16.00
2018-10-01T10:51:25.443Z,16.10
2018-10-01T10:53:54.907Z,15.90
2018-10-01T10:56:24.363Z,15.80
2018-10-01T10:58:53.927Z,15.70
2018-10-01T11:01:23.395Z,15.50
2018-10-01T11:03:52.878Z,15.20
2018-10-01T11:06:22.373Z,15.00
2018-10-01T11:08:52.837Z,15.00
2018-10-01T11:11:22.254Z,15.00
2018-10-01T11:13:51.807Z,14.60
2018-10-01T11:16:21.256Z,14.40
2018-10-01T11:18:51.106Z,13.90
2018-10-01T11:21:20.307Z,13.60
2018-10-01T11:23:49.702Z,13.50
2018-10-01T11:26:19.129Z,14.00
2018-10-01T11:28:52.886Z,14.60
2018-10-01T11:31:22.516Z,14.80
2018-10-01T11:33:52.053Z,14.50
2018-10-01T11:36:21.589Z,13.90
2018-10-01T11:38:51.042Z,13.40
2018-10-01T11:41:20.583Z,13.00
2018-10-01T11:43:50.081Z,12.60
2018-10-01T11:46:19.555Z,12.70
2018-10-01T11:48:49.037Z,12.70
2018-10-01T11:51:18.608Z,12.90
2018-10-01T11:53:48.026Z,13.20
2018-10-01T11:56:17.526Z,13.60
2018-10-01T11:58:47.004Z,13.40
2018-10-01T12:01:16.527Z,12.90
2018-10-01T12:03:46.450Z,12.40
2018-10-01T12:06:15.799Z,11.90
2018-10-01T12:08:47.428Z,11.40
2018-10-01T12:11:16.997Z,11.00
2018-10-01T12:13:46.632Z,10.70
2018-10-01T12:16:16.232Z,10.40
2018-10-01T12:18:49.212Z,10.00
2018-10-01T12:21:19.442Z,9.80
2018-10-01T12:23:48.966Z,9.80
2018-10-01T12:26:18.438Z,9.90
2018-10-01T12:28:48.261Z,10.10
2018-10-01T12:31:21.409Z,10.30
2018-10-01T12:33:51.996Z,10.40
2018-10-01T12:36:22.529Z,10.60
2018-10-01T12:38:53.859Z,10.80
2018-10-01T12:41:24.013Z,10.80
2018-10-01T12:43:54.222Z,10.90
2018-10-01T12:46:24.517Z,11.10
2018-10-01T12:48:54.401Z,11.20
2018-10-01T12:51:24.322Z,11.20
2018-10-01T12:53:54.879Z,11.40
2018-10-01T12:56:25.214Z,11.30
2018-10-01T12:58:54.663Z,11.20
2018-10-01T13:01:25.103Z,11.30
2018-10-01T13:03:55.546Z,11.50
2018-10-01T13:06:25.029Z,11.50
2018-10-01T13:08:55.341Z,11.60
2018-10-01T13:11:24.802Z,11.60
2018-10-01T13:13:55.165Z,11.70
2018-10-01T13:16:25.092Z,11.70
2018-10-01T13:18:54.899Z,11.70
2018-10-01T13:21:24.443Z,11.60
2018-10-01T13:23:53.996Z,11.50
2018-10-01T13:26:23.778Z,11.50
2018-10-01T13:28:53.243Z,11.50
2018-10-01T13:31:22.759Z,11.60
2018-10-01T13:33:52.312Z,11.70
2018-10-01T13:36:22.979Z,11.90
2018-10-01T13:38:55.455Z,12.10
2018-10-01T13:41:26.086Z,12.30
2018-10-01T13:43:58.169Z,12.50
2018-10-01T13:46:28.317Z,12.70
2018-10-01T13:49:01.247Z,13.00
2018-10-01T13:51:35.472Z,13.00
2018-10-01T13:54:05.003Z,13.10
2018-10-01T13:56:34.594Z,13.00
2018-10-01T13:59:06.525Z,12.70
2018-10-01T14:01:39.977Z,12.50
2018-10-01T14:04:13.344Z,12.20
2018-10-01T14:06:43.045Z,12.00
2018-10-01T14:09:16.968Z,11.70
2018-10-01T14:11:53.623Z,11.40
2018-10-01T14:14:23.808Z,11.30
2018-10-01T14:16:59.205Z,11.10
2018-10-01T14:19:34.015Z,11.20
2018-10-01T14:22:06.444Z,11.10
2018-10-01T14:24:36.127Z,11.10
2018-10-01T14:27:06.175Z,11.00
2018-10-01T14:29:37.187Z,11.00
2018-10-01T14:32:07.642Z,11.00
2018-10-01T14:34:37.345Z,11.20
2018-10-01T14:37:08.024Z,11.60
2018-10-01T14:39:37.526Z,11.90
2018-10-01T14:42:11.632Z,12.00
2018-10-01T14:44:45.467Z,11.90
2018-10-01T14:47:19.455Z,11.80
2018-10-01T14:49:54.029Z,11.80
2018-10-01T14:52:28.281Z,11.90
2018-10-01T14:55:02.147Z,11.90
2018-10-01T14:57:35.745Z,11.90
2018-10-01T15:00:06.070Z,12.00
2018-10-01T15:02:41.351Z,12.00
2018-10-01T15:05:14.578Z,11.90
2018-10-01T15:07:49.221Z,11.80
2018-10-01T15:10:23.527Z,11.90
2018-10-01T15:13:00.024Z,11.70
2018-10-01T15:15:33.282Z,11.50
2018-10-01T15:18:06.424Z,11.40
2018-10-01T15:20:36.431Z,11.40
2018-10-01T15:23:06.271Z,11.40
2018-10-01T15:25:35.835Z,11.40
2018-10-01T15:28:11.393Z,11.30
2018-10-01T15:30:45.276Z,11.10
2018-10-01T15:33:21.824Z,11.00
2018-10-01T15:35:55.983Z,10.90
2018-10-01T15:38:29.560Z,10.90
2018-10-01T15:41:05.210Z,10.80
2018-10-01T15:43:39.000Z,10.90
2018-10-01T15:46:08.690Z,10.90
2018-10-01T15:48:41.739Z,10.90
2018-10-01T15:51:16.196Z,10.90
2018-10-01T15:53:48.921Z,10.90
2018-10-01T15:56:23.200Z,10.80
2018-10-01T15:58:57.369Z,10.80
2018-10-01T16:01:27.298Z,10.80
2018-10-01T16:03:56.846Z,10.80
2018-10-01T16:06:30.996Z,10.80
2018-10-01T16:09:05.262Z,10.80
2018-10-01T16:11:38.801Z,10.70
2018-10-01T16:14:08.993Z,10.70
2018-10-01T16:16:44.025Z,10.70
2018-10-01T16:19:18.415Z,10.70
2018-10-01T16:21:52.303Z,10.70
2018-10-01T16:24:27.259Z,10.60
2018-10-01T16:26:57.021Z,10.50
2018-10-01T16:29:26.512Z,10.40
2018-10-01T16:31:56.029Z,10.30
2018-10-01T16:34:25.493Z,10.20
2018-10-01T16:36:55.037Z,10.10
2018-10-01T16:39:24.440Z,10.10
2018-10-01T16:41:53.882Z,10.10
2018-10-01T16:44:23.394Z,10.10
2018-10-01T16:46:52.860Z,9.80
2018-10-01T16:49:22.357Z,9.40
2018-10-01T16:51:51.841Z,9.00
2018-10-01T16:54:21.350Z,8.80
2018-10-01T16:56:50.904Z,8.70
2018-10-01T16:59:20.605Z,8.50
2018-10-01T17:01:50.023Z,8.50
2018-10-01T17:04:19.452Z,8.30
2018-10-01T17:06:48.903Z,8.20
2018-10-01T17:09:18.344Z,8.00
2018-10-01T17:11:47.829Z,7.90
2018-10-01T17:14:17.347Z,7.80
2018-10-01T17:16:46.825Z,7.60
2018-10-01T17:19:16.259Z,7.50
2018-10-01T17:21:45.694Z,7.40
2018-10-01T17:24:15.188Z,7.30
2018-10-01T17:26:44.690Z,7.20
2018-10-01T17:29:14.047Z,7.10
2018-10-01T17:31:43.512Z,7.00
2018-10-01T17:34:13.024Z,7.00
2018-10-01T17:36:42.485Z,7.10
2018-10-01T17:39:11.989Z,7.20
2018-10-01T17:41:41.480Z,7.30
2018-10-01T17:44:11.045Z,7.40
2018-10-01T17:46:40.546Z,7.50
2018-10-01T17:49:10.004Z,7.70
2018-10-01T17:51:39.573Z,7.80
2018-10-01T17:54:08.991Z,7.90
2018-10-01T17:56:38.459Z,7.90
2018-10-01T17:59:07.948Z,7.90
2018-10-01T18:01:37.375Z,7.90
2018-10-01T18:04:06.850Z,7.90
2018-10-01T18:06:36.595Z,7.90
2018-10-01T18:09:08.505Z,7.90
2018-10-01T18:11:38.004Z,7.80
2018-10-01T18:14:08.414Z,7.70
2018-10-01T18:16:39.851Z,7.70
2018-10-01T18:19:09.602Z,7.70
2018-10-01T18:21:39.219Z,7.60
2018-10-01T18:24:08.817Z,7.60
2018-10-01T18:26:38.247Z,7.50
2018-10-01T18:29:07.720Z,7.50
2018-10-01T18:31:37.261Z,7.50
2018-10-01T18:34:06.844Z,7.40
2018-10-01T18:36:36.269Z,7.30
2018-10-01T18:39:12.506Z,7.30
2018-10-01T18:41:42.016Z,7.20
2018-10-01T18:44:11.521Z,7.10
2018-10-01T18:46:41.038Z,7.10
2018-10-01T18:49:10.514Z,7.00
2018-10-01T18:51:39.963Z,6.90
2018-10-01T18:54:09.499Z,6.90
2018-10-01T18:56:39.043Z,6.80
2018-10-01T18:59:09.076Z,6.70
2018-10-01T19:01:38.625Z,6.70
2018-10-01T19:04:08.195Z,6.60
2018-10-01T19:06:37.747Z,6.60
2018-10-01T19:09:10.507Z,6.50
2018-10-01T19:11:40.810Z,6.50
2018-10-01T19:14:11.041Z,6.50
2018-10-01T19:16:40.607Z,6.40
2018-10-01T19:19:10.094Z,6.40
2018-10-01T19:21:39.628Z,6.40
2018-10-01T19:24:09.221Z,6.40
2018-10-01T19:26:38.775Z,6.30
2018-10-01T19:29:08.528Z,6.30
2018-10-01T19:31:38.070Z,6.20
2018-10-01T19:34:07.576Z,6.30
2018-10-01T19:36:37.755Z,6.30
2018-10-01T19:39:07.978Z,6.30
2018-10-01T19:41:37.594Z,6.30
2018-10-01T19:44:07.025Z,6.30
2018-10-01T19:46:36.975Z,6.20
2018-10-01T19:49:06.513Z,6.20
2018-10-01T19:51:36.274Z,6.20
2018-10-01T19:54:05.804Z,6.20
2018-10-01T19:56:35.292Z,6.10
2018-10-01T19:59:04.903Z,6.00
2018-10-01T20:01:34.398Z,6.00
2018-10-01T20:04:03.874Z,6.00
2018-10-01T20:06:33.488Z,5.90
2018-10-01T20:09:03.234Z,5.90
2018-10-01T20:11:32.676Z,5.90
2018-10-01T20:14:02.204Z,6.00
2018-10-01T20:16:31.876Z,6.10
2018-10-01T20:19:01.413Z,6.20
2018-10-01T20:21:31.607Z,6.30
2018-10-01T20:24:01.497Z,6.50
2018-10-01T20:26:31.173Z,6.50
2018-10-01T20:29:00.831Z,6.50
2018-10-01T20:31:29.969Z,6.60
2018-10-01T20:33:59.473Z,6.60
2018-10-01T20:36:29.040Z,6.60
2018-10-01T20:38:58.480Z,6.60
2018-10-01T20:41:28.472Z,6.60
2018-10-01T20:43:58.446Z,6.60
2018-10-01T20:46:27.864Z,6.60
2018-10-01T20:48:57.368Z,6.60
2018-10-01T20:51:26.977Z,6.60
2018-10-01T20:53:57.488Z,6.60
2018-10-01T20:56:28.100Z,6.70
2018-10-01T20:58:58.604Z,6.70
2018-10-01T21:01:28.766Z,6.80
2018-10-01T21:03:59.476Z,6.80
2018-10-01T21:06:29.867Z,6.80
2018-10-01T21:09:00.339Z,6.80
2018-10-01T21:11:29.830Z,6.70
2018-10-01T21:13:59.286Z,6.70
2018-10-01T21:16:28.731Z,6.60
2018-10-01T21:18:58.456Z,6.50
2018-10-01T21:21:27.847Z,6.40
2018-10-01T21:24:10.266Z,6.40
2018-10-01T21:26:39.964Z,6.40
2018-10-01T21:29:09.452Z,6.30
2018-10-01T21:31:38.951Z,6.30
2018-10-01T21:34:09.526Z,6.30
2018-10-01T21:36:39.084Z,6.40
2018-10-01T21:39:11.269Z,6.40
2018-10-01T21:41:40.853Z,6.40
2018-10-01T21:44:10.371Z,6.30
2018-10-01T21:46:39.924Z,6.20
2018-10-01T21:49:10.497Z,6.20
2018-10-01T21:51:40.012Z,6.10
2018-10-01T21:54:10.419Z,6.00
2018-10-01T21:56:40.413Z,5.90
2018-10-01T21:59:10.476Z,5.80
2018-10-01T22:01:41.661Z,5.80
2018-10-01T22:04:11.724Z,5.70
2018-10-01T22:06:41.586Z,5.70
2018-10-01T22:09:11.535Z,5.60
2018-10-01T22:11:45.009Z,5.60
2018-10-01T22:14:14.427Z,5.60
2018-10-01T22:16:46.837Z,5.50
2018-10-01T22:19:17.007Z,5.50
2018-10-01T22:21:47.119Z,5.40
2018-10-01T22:24:17.036Z,5.40
2018-10-01T22:26:46.451Z,5.40
2018-10-01T22:29:16.945Z,5.40
2018-10-01T22:31:47.398Z,5.40
2018-10-01T22:34:17.080Z,5.40
2018-10-01T22:36:46.881Z,5.40
2018-10-01T22:39:16.404Z,5.30
2018-10-01T22:41:45.876Z,5.30
2018-10-01T22:44:15.635Z,5.30
2018-10-01T22:46:45.113Z,5.30
2018-10-01T22:49:14.641Z,5.30
2018-10-01T22:51:45.917Z,5.30
2018-10-01T22:54:15.452Z,5.30
2018-10-01T22:56:45.133Z,5.30
2018-10-01T22:59:15.365Z,5.30
2018-10-01T23:01:45.213Z,5.30
2018-10-01T23:04:15.238Z,5.20
2018-10-01T23:06:44.764Z,5.20
2018-10-01T23:09:14.267Z,5.20
2018-10-01T23:11:45.127Z,5.20
2018-10-01T23:14:16.448Z,5.10
2018-10-01T23:16:45.993Z,5.10
2018-10-01T23:19:15.503Z,5.10
2018-10-01T23:21:45.038Z,5.00
2018-10-01T23:24:14.485Z,5.00
2018-10-01T23:26:43.905Z,5.00
2018-10-01T23:29:13.376Z,4.90
2018-10-01T23:31:42.834Z,4.90
2018-10-01T23:34:12.350Z,4.90
2018-10-01T23:36:41.823Z,4.90
2018-10-01T23:39:11.285Z,4.90
2018-10-01T23:41:40.753Z,4.90
2018-10-01T23:44:10.676Z,4.90
2018-10-01T23:46:40.194Z,4.90
2018-10-01T23:49:09.637Z,4.80
2018-10-01T23:51:39.077Z,4.80
2018-10-01T23:54:08.521Z,4.80
2018-10-01T23:56:37.982Z,4.70
2018-10-01T23:59:07.475Z,4.70
